createdAt,value
2022-12-18T00:07:47.750Z,85.63
2022-12-18T00:37:52.181Z,84.80
2022-12-18T01:07:57.027Z,84.81
2022-12-18T01:38:01.056Z,83.66
2022-12-18T02:08:11.728Z,85.34
2022-12-18T02:38:16.544Z,84.84
2022-12-18T03:08:23.111Z,84.46
2022-12-18T03:38:27.058Z,83.59
2022-12-18T04:08:31.780Z,83.89
2022-12-18T04:38:35.864Z,82.97
2022-12-18T05:08:39.840Z,81.51
2022-12-18T05:38:43.856Z,82.93
2022-12-18T06:08:48.563Z,82.54
2022-12-18T06:38:52.595Z,81.63
2022-12-18T07:08:56.943Z,80.14
2022-12-18T07:39:01.021Z,81.43
2022-12-18T08:09:05.485Z,81.03
2022-12-18T08:39:09.541Z,66.58
2022-12-18T09:09:13.811Z,55.34
2022-12-18T09:39:18.039Z,47.62
2022-12-18T10:09:30.919Z,43.51
2022-12-18T10:39:35.847Z,48.42
2022-12-18T11:09:42.628Z,43.04
2022-12-18T11:39:52.203Z,47.76
2022-12-18T12:10:04.447Z,57.65
2022-12-18T12:40:40.822Z,65.27
2022-12-18T13:10:38.137Z,71.96
2022-12-18T13:41:01.003Z,75.11
2022-12-18T14:11:06.553Z,78.78
2022-12-18T14:41:14.641Z,79.93
2022-12-18T15:11:36.861Z,82.03
2022-12-18T15:41:41.252Z,82.43
2022-12-18T16:11:47.757Z,83.09
2022-12-18T16:41:51.985Z,82.69
2022-12-18T17:11:56.285Z,83.64
2022-12-18T17:42:00.444Z,84.07
2022-12-18T18:12:22.255Z,83.60
2022-12-18T18:42:26.425Z,83.65
2022-12-18T19:12:48.710Z,85.08
2022-12-18T19:42:52.782Z,84.24
2022-12-18T20:12:57.734Z,83.72
2022-12-18T20:43:05.318Z,82.88
2022-12-18T21:13:09.581Z,82.75
2022-12-18T21:43:33.139Z,82.58
2022-12-18T22:13:37.152Z,82.65
2022-12-18T22:43:41.248Z,83.11
2022-12-18T23:13:46.036Z,84.48
2022-12-18T23:43:50.475Z,84.17
